virtualACA

Welcome To Calgary International Airport CYYC

Hub Roster

Pilot Domicile Rank
Ethan Title - ACA1641CanadaChief Pilot
Graham Dawson - ACA2317CanadaChief Pilot
Roger Godden - ACA2339CanadaChief Pilot
Nemeth Istvan - ACA3257HungaryNew Hire

Current Vatsim Weather


CYYC 190800Z 23007KT 15SM SCT250 10/00 A2974 RMK CI3 SLP078 DENSITY ALT 4200FT
Calgary International Airport